sensor_id;sensor_type;location;lat;lon;timestamp;P1;durP1;ratioP1;P2;durP2;ratioP2
25359;SDS011;13311;51.386;0.016;2022-07-06T00:04:09;2.28;;;1.08;;
25359;SDS011;13311;51.386;0.016;2022-07-06T00:09:11;4.18;;;1.00;;
25359;SDS011;13311;51.386;0.016;2022-07-06T00:14:12;2.22;;;0.90;;
25359;SDS011;13311;51.386;0.016;2022-07-06T00:19:13;1.90;;;1.00;;
25359;SDS011;13311;51.386;0.016;2022-07-06T00:24:13;1.10;;;0.80;;
25359;SDS011;13311;51.386;0.016;2022-07-06T00:29:14;2.40;;;1.55;;
25359;SDS011;13311;51.386;0.016;2022-07-06T00:34:15;2.08;;;1.10;;
25359;SDS011;13311;51.386;0.016;2022-07-06T00:39:16;2.63;;;1.15;;
25359;SDS011;13311;51.386;0.016;2022-07-06T00:44:18;4.03;;;1.05;;
25359;SDS011;13311;51.386;0.016;2022-07-06T00:49:19;3.75;;;1.35;;
25359;SDS011;13311;51.386;0.016;2022-07-06T00:54:38;1.95;;;0.95;;
25359;SDS011;13311;51.386;0.016;2022-07-06T00:59:42;1.58;;;0.90;;
25359;SDS011;13311;51.386;0.016;2022-07-06T01:04:43;4.35;;;1.45;;
25359;SDS011;13311;51.386;0.016;2022-07-06T01:09:44;3.78;;;1.45;;
25359;SDS011;13311;51.386;0.016;2022-07-06T01:14:44;2.85;;;1.20;;
25359;SDS011;13311;51.386;0.016;2022-07-06T01:19:45;2.35;;;1.15;;
25359;SDS011;13311;51.386;0.016;2022-07-06T01:24:46;3.80;;;1.17;;
25359;SDS011;13311;51.386;0.016;2022-07-06T01:29:47;2.63;;;1.00;;
25359;SDS011;13311;51.386;0.016;2022-07-06T01:34:47;6.72;;;1.83;;
25359;SDS011;13311;51.386;0.016;2022-07-06T01:39:48;3.63;;;1.40;;
25359;SDS011;13311;51.386;0.016;2022-07-06T01:44:49;4.82;;;1.40;;
25359;SDS011;13311;51.386;0.016;2022-07-06T01:49:50;4.63;;;1.90;;
25359;SDS011;13311;51.386;0.016;2022-07-06T01:54:50;4.63;;;1.40;;
25359;SDS011;13311;51.386;0.016;2022-07-06T01:59:51;2.75;;;1.55;;
25359;SDS011;13311;51.386;0.016;2022-07-06T02:04:52;1.92;;;1.08;;
25359;SDS011;13311;51.386;0.016;2022-07-06T02:09:53;4.53;;;1.30;;
25359;SDS011;13311;51.386;0.016;2022-07-06T02:14:54;5.65;;;1.20;;
25359;SDS011;13311;51.386;0.016;2022-07-06T02:19:54;2.85;;;1.20;;
25359;SDS011;13311;51.386;0.016;2022-07-06T02:24:55;5.80;;;1.42;;
25359;SDS011;13311;51.386;0.016;2022-07-06T02:29:56;4.63;;;1.50;;
25359;SDS011;13311;51.386;0.016;2022-07-06T02:34:57;3.40;;;1.30;;
25359;SDS011;13311;51.386;0.016;2022-07-06T02:39:58;5.82;;;1.55;;
25359;SDS011;13311;51.386;0.016;2022-07-06T02:44:59;5.07;;;1.20;;
25359;SDS011;13311;51.386;0.016;2022-07-06T02:50:00;3.92;;;1.48;;
25359;SDS011;13311;51.386;0.016;2022-07-06T02:55:01;6.10;;;1.70;;
25359;SDS011;13311;51.386;0.016;2022-07-06T03:00:02;5.93;;;1.27;;
25359;SDS011;13311;51.386;0.016;2022-07-06T03:05:05;3.30;;;1.15;;
25359;SDS011;13311;51.386;0.016;2022-07-06T03:10:06;2.88;;;1.42;;
25359;SDS011;13311;51.386;0.016;2022-07-06T03:15:07;3.30;;;1.38;;
25359;SDS011;13311;51.386;0.016;2022-07-06T03:20:09;2.28;;;1.40;;
25359;SDS011;13311;51.386;0.016;2022-07-06T03:25:11;5.35;;;1.52;;
25359;SDS011;13311;51.386;0.016;2022-07-06T03:30:11;3.80;;;1.48;;
25359;SDS011;13311;51.386;0.016;2022-07-06T03:35:14;3.58;;;1.30;;
25359;SDS011;13311;51.386;0.016;2022-07-06T03:40:14;4.00;;;1.40;;
25359;SDS011;13311;51.386;0.016;2022-07-06T03:45:15;3.80;;;1.50;;
25359;SDS011;13311;51.386;0.016;2022-07-06T03:50:16;4.72;;;1.52;;
25359;SDS011;13311;51.386;0.016;2022-07-06T03:55:17;4.93;;;1.75;;
25359;SDS011;13311;51.386;0.016;2022-07-06T04:00:18;9.65;;;1.77;;
25359;SDS011;13311;51.386;0.016;2022-07-06T04:05:18;4.63;;;1.50;;
25359;SDS011;13311;51.386;0.016;2022-07-06T04:10:21;4.28;;;1.98;;
25359;SDS011;13311;51.386;0.016;2022-07-06T04:15:21;3.10;;;1.48;;
25359;SDS011;13311;51.386;0.016;2022-07-06T04:20:23;6.65;;;1.80;;
25359;SDS011;13311;51.386;0.016;2022-07-06T04:25:25;6.60;;;1.48;;
25359;SDS011;13311;51.386;0.016;2022-07-06T04:30:26;3.15;;;1.85;;
25359;SDS011;13311;51.386;0.016;2022-07-06T04:35:27;3.88;;;1.85;;
25359;SDS011;13311;51.386;0.016;2022-07-06T04:40:28;4.38;;;1.63;;
25359;SDS011;13311;51.386;0.016;2022-07-06T04:45:29;6.20;;;2.00;;
25359;SDS011;13311;51.386;0.016;2022-07-06T04:50:30;3.47;;;1.75;;
25359;SDS011;13311;51.386;0.016;2022-07-06T04:55:32;6.00;;;2.13;;
25359;SDS011;13311;51.386;0.016;2022-07-06T05:00:33;6.78;;;2.00;;
25359;SDS011;13311;51.386;0.016;2022-07-06T05:05:34;5.18;;;1.77;;
25359;SDS011;13311;51.386;0.016;2022-07-06T05:10:34;6.13;;;2.40;;
25359;SDS011;13311;51.386;0.016;2022-07-06T05:15:35;3.85;;;1.60;;
25359;SDS011;13311;51.386;0.016;2022-07-06T05:20:36;4.03;;;1.65;;
25359;SDS011;13311;51.386;0.016;2022-07-06T05:25:37;5.38;;;2.08;;
25359;SDS011;13311;51.386;0.016;2022-07-06T05:30:38;5.53;;;2.00;;
25359;SDS011;13311;51.386;0.016;2022-07-06T05:35:38;7.25;;;2.08;;
25359;SDS011;13311;51.386;0.016;2022-07-06T05:40:39;6.15;;;2.50;;
25359;SDS011;13311;51.386;0.016;2022-07-06T05:45:40;8.13;;;2.17;;
25359;SDS011;13311;51.386;0.016;2022-07-06T05:50:41;3.88;;;1.70;;
25359;SDS011;13311;51.386;0.016;2022-07-06T05:55:41;6.95;;;2.30;;
25359;SDS011;13311;51.386;0.016;2022-07-06T06:00:42;7.85;;;2.13;;
25359;SDS011;13311;51.386;0.016;2022-07-06T06:05:44;4.72;;;1.70;;
25359;SDS011;13311;51.386;0.016;2022-07-06T06:10:44;5.60;;;2.08;;
25359;SDS011;13311;51.386;0.016;2022-07-06T06:15:45;7.43;;;1.80;;
25359;SDS011;13311;51.386;0.016;2022-07-06T06:20:46;6.13;;;2.05;;
25359;SDS011;13311;51.386;0.016;2022-07-06T06:25:47;11.65;;;1.98;;
25359;SDS011;13311;51.386;0.016;2022-07-06T06:30:47;4.72;;;1.42;;
25359;SDS011;13311;51.386;0.016;2022-07-06T06:35:49;9.20;;;2.40;;
25359;SDS011;13311;51.386;0.016;2022-07-06T06:40:52;3.88;;;1.48;;
25359;SDS011;13311;51.386;0.016;2022-07-06T06:45:53;5.05;;;1.42;;
25359;SDS011;13311;51.386;0.016;2022-07-06T06:50:54;1.95;;;1.23;;
25359;SDS011;13311;51.386;0.016;2022-07-06T06:55:54;8.20;;;2.13;;
25359;SDS011;13311;51.386;0.016;2022-07-06T07:00:55;5.70;;;1.80;;
25359;SDS011;13311;51.386;0.016;2022-07-06T07:05:56;4.45;;;2.05;;
25359;SDS011;13311;51.386;0.016;2022-07-06T07:10:57;6.50;;;2.33;;
25359;SDS011;13311;51.386;0.016;2022-07-06T07:15:58;5.25;;;1.60;;
25359;SDS011;13311;51.386;0.016;2022-07-06T07:20:59;5.45;;;1.70;;
25359;SDS011;13311;51.386;0.016;2022-07-06T07:26:00;3.28;;;1.60;;
25359;SDS011;13311;51.386;0.016;2022-07-06T07:31:01;1.98;;;1.55;;
25359;SDS011;13311;51.386;0.016;2022-07-06T07:36:02;7.03;;;2.00;;
25359;SDS011;13311;51.386;0.016;2022-07-06T07:41:03;2.95;;;1.67;;
25359;SDS011;13311;51.386;0.016;2022-07-06T07:46:06;1.85;;;1.13;;
25359;SDS011;13311;51.386;0.016;2022-07-06T07:51:07;1.50;;;0.90;;
25359;SDS011;13311;51.386;0.016;2022-07-06T07:56:07;6.82;;;1.52;;
25359;SDS011;13311;51.386;0.016;2022-07-06T08:01:08;2.00;;;1.30;;
25359;SDS011;13311;51.386;0.016;2022-07-06T08:06:09;4.55;;;1.48;;
25359;SDS011;13311;51.386;0.016;2022-07-06T08:11:10;2.72;;;1.30;;
25359;SDS011;13311;51.386;0.016;2022-07-06T08:16:11;1.60;;;1.20;;
25359;SDS011;13311;51.386;0.016;2022-07-06T08:21:12;1.95;;;1.08;;
25359;SDS011;13311;51.386;0.016;2022-07-06T08:26:13;3.30;;;1.00;;
25359;SDS011;13311;51.386;0.016;2022-07-06T08:31:14;4.72;;;1.38;;
25359;SDS011;13311;51.386;0.016;2022-07-06T08:36:14;4.57;;;1.70;;
25359;SDS011;13311;51.386;0.016;2022-07-06T08:41:15;3.72;;;1.50;;
25359;SDS011;13311;51.386;0.016;2022-07-06T08:46:18;2.33;;;1.00;;
25359;SDS011;13311;51.386;0.016;2022-07-06T08:51:20;1.48;;;0.82;;
25359;SDS011;13311;51.386;0.016;2022-07-06T08:56:22;1.02;;;0.80;;
25359;SDS011;13311;51.386;0.016;2022-07-06T09:01:23;1.75;;;1.00;;
25359;SDS011;13311;51.386;0.016;2022-07-06T09:06:25;3.85;;;0.80;;
25359;SDS011;13311;51.386;0.016;2022-07-06T09:11:26;1.48;;;0.85;;
25359;SDS011;13311;51.386;0.016;2022-07-06T09:16:28;3.55;;;0.80;;
25359;SDS011;13311;51.386;0.016;2022-07-06T09:21:32;1.25;;;0.88;;
25359;SDS011;13311;51.386;0.016;2022-07-06T09:26:36;6.47;;;1.30;;
25359;SDS011;13311;51.386;0.016;2022-07-06T09:31:39;4.15;;;0.90;;
25359;SDS011;13311;51.386;0.016;2022-07-06T09:36:44;2.25;;;0.77;;
25359;SDS011;13311;51.386;0.016;2022-07-06T09:41:48;1.10;;;0.60;;
25359;SDS011;13311;51.386;0.016;2022-07-06T09:46:52;1.38;;;0.50;;
25359;SDS011;13311;51.386;0.016;2022-07-06T09:51:57;1.15;;;0.82;;
25359;SDS011;13311;51.386;0.016;2022-07-06T09:57:01;1.45;;;0.70;;
25359;SDS011;13311;51.386;0.016;2022-07-06T10:02:04;2.25;;;1.45;;
25359;SDS011;13311;51.386;0.016;2022-07-06T10:07:06;1.52;;;0.90;;
25359;SDS011;13311;51.386;0.016;2022-07-06T10:12:09;1.85;;;0.70;;
25359;SDS011;13311;51.386;0.016;2022-07-06T10:17:12;1.05;;;0.65;;
25359;SDS011;13311;51.386;0.016;2022-07-06T10:22:14;1.40;;;0.60;;
25359;SDS011;13311;51.386;0.016;2022-07-06T10:27:18;1.55;;;0.75;;
25359;SDS011;13311;51.386;0.016;2022-07-06T10:32:19;1.13;;;0.60;;
25359;SDS011;13311;51.386;0.016;2022-07-06T10:37:26;4.50;;;0.80;;
25359;SDS011;13311;51.386;0.016;2022-07-06T10:42:41;1.65;;;0.85;;
25359;SDS011;13311;51.386;0.016;2022-07-06T10:48:13;1.58;;;0.90;;
25359;SDS011;13311;51.386;0.016;2022-07-06T10:53:13;0.70;;;0.57;;
25359;SDS011;13311;51.386;0.016;2022-07-06T10:58:35;0.77;;;0.50;;
25359;SDS011;13311;51.386;0.016;2022-07-06T11:09:15;2.03;;;0.60;;
25359;SDS011;13311;51.386;0.016;2022-07-06T11:14:16;0.60;;;0.50;;
25359;SDS011;13311;51.386;0.016;2022-07-06T11:19:19;2.10;;;0.50;;
25359;SDS011;13311;51.386;0.016;2022-07-06T11:24:24;2.30;;;0.63;;
25359;SDS011;13311;51.386;0.016;2022-07-06T11:29:30;0.75;;;0.50;;
25359;SDS011;13311;51.386;0.016;2022-07-06T11:34:32;1.35;;;1.08;;
25359;SDS011;13311;51.386;0.016;2022-07-06T11:39:35;1.23;;;0.60;;
25359;SDS011;13311;51.386;0.016;2022-07-06T11:44:40;0.82;;;0.50;;
25359;SDS011;13311;51.386;0.016;2022-07-06T11:49:42;4.13;;;0.70;;
25359;SDS011;13311;51.386;0.016;2022-07-06T11:54:45;0.98;;;0.50;;
25359;SDS011;13311;51.386;0.016;2022-07-06T11:59:46;1.05;;;0.40;;
25359;SDS011;13311;51.386;0.016;2022-07-06T12:04:48;0.65;;;0.65;;
25359;SDS011;13311;51.386;0.016;2022-07-06T12:09:50;0.40;;;0.38;;
25359;SDS011;13311;51.386;0.016;2022-07-06T12:14:51;1.33;;;0.68;;
25359;SDS011;13311;51.386;0.016;2022-07-06T12:19:53;1.25;;;0.52;;
25359;SDS011;13311;51.386;0.016;2022-07-06T12:24:55;1.20;;;0.60;;
25359;SDS011;13311;51.386;0.016;2022-07-06T12:30:07;1.65;;;0.57;;
25359;SDS011;13311;51.386;0.016;2022-07-06T12:35:10;2.78;;;0.90;;
25359;SDS011;13311;51.386;0.016;2022-07-06T12:40:11;1.42;;;1.10;;
25359;SDS011;13311;51.386;0.016;2022-07-06T12:45:14;1.40;;;0.60;;
25359;SDS011;13311;51.386;0.016;2022-07-06T12:50:15;1.02;;;0.50;;
25359;SDS011;13311;51.386;0.016;2022-07-06T12:55:15;2.88;;;0.63;;
25359;SDS011;13311;51.386;0.016;2022-07-06T13:00:17;0.88;;;0.70;;
25359;SDS011;13311;51.386;0.016;2022-07-06T13:05:18;2.20;;;0.63;;
25359;SDS011;13311;51.386;0.016;2022-07-06T13:10:29;0.30;;;0.20;;
25359;SDS011;13311;51.386;0.016;2022-07-06T13:15:30;1.42;;;0.60;;
25359;SDS011;13311;51.386;0.016;2022-07-06T13:20:31;0.60;;;0.47;;
25359;SDS011;13311;51.386;0.016;2022-07-06T13:25:32;1.08;;;0.43;;
25359;SDS011;13311;51.386;0.016;2022-07-06T13:30:32;0.45;;;0.32;;
25359;SDS011;13311;51.386;0.016;2022-07-06T13:35:33;0.70;;;0.55;;
25359;SDS011;13311;51.386;0.016;2022-07-06T13:40:34;0.60;;;0.40;;
25359;SDS011;13311;51.386;0.016;2022-07-06T13:45:35;3.17;;;0.47;;
25359;SDS011;13311;51.386;0.016;2022-07-06T13:50:37;0.68;;;0.50;;
25359;SDS011;13311;51.386;0.016;2022-07-06T13:55:38;1.38;;;0.60;;
25359;SDS011;13311;51.386;0.016;2022-07-06T14:00:38;1.00;;;0.47;;
25359;SDS011;13311;51.386;0.016;2022-07-06T14:05:39;3.30;;;0.60;;
25359;SDS011;13311;51.386;0.016;2022-07-06T14:10:40;0.85;;;0.40;;
25359;SDS011;13311;51.386;0.016;2022-07-06T14:15:41;0.65;;;0.50;;
25359;SDS011;13311;51.386;0.016;2022-07-06T14:20:41;3.58;;;0.60;;
25359;SDS011;13311;51.386;0.016;2022-07-06T14:25:46;0.98;;;0.50;;
25359;SDS011;13311;51.386;0.016;2022-07-06T14:30:47;1.38;;;0.70;;
25359;SDS011;13311;51.386;0.016;2022-07-06T14:35:48;1.08;;;0.50;;
25359;SDS011;13311;51.386;0.016;2022-07-06T14:40:53;3.03;;;0.70;;
25359;SDS011;13311;51.386;0.016;2022-07-06T14:45:54;3.53;;;0.98;;
25359;SDS011;13311;51.386;0.016;2022-07-06T14:50:54;0.63;;;0.60;;
25359;SDS011;13311;51.386;0.016;2022-07-06T14:55:55;1.23;;;0.68;;
25359;SDS011;13311;51.386;0.016;2022-07-06T15:00:56;1.80;;;0.68;;
25359;SDS011;13311;51.386;0.016;2022-07-06T15:05:57;1.13;;;0.60;;
25359;SDS011;13311;51.386;0.016;2022-07-06T15:10:58;3.75;;;0.65;;
25359;SDS011;13311;51.386;0.016;2022-07-06T15:15:59;2.33;;;0.60;;
25359;SDS011;13311;51.386;0.016;2022-07-06T15:21:00;1.20;;;0.63;;
25359;SDS011;13311;51.386;0.016;2022-07-06T15:26:02;1.80;;;0.82;;
25359;SDS011;13311;51.386;0.016;2022-07-06T15:31:03;0.95;;;0.50;;
25359;SDS011;13311;51.386;0.016;2022-07-06T15:36:04;0.75;;;0.52;;
25359;SDS011;13311;51.386;0.016;2022-07-06T15:41:05;2.97;;;1.10;;
25359;SDS011;13311;51.386;0.016;2022-07-06T15:46:06;7.47;;;1.40;;
25359;SDS011;13311;51.386;0.016;2022-07-06T15:51:07;1.20;;;0.50;;
25359;SDS011;13311;51.386;0.016;2022-07-06T15:56:08;1.42;;;0.60;;
25359;SDS011;13311;51.386;0.016;2022-07-06T16:01:09;6.03;;;1.58;;
25359;SDS011;13311;51.386;0.016;2022-07-06T16:06:10;3.20;;;0.82;;
25359;SDS011;13311;51.386;0.016;2022-07-06T16:11:11;11.27;;;1.38;;
25359;SDS011;13311;51.386;0.016;2022-07-06T16:16:13;1.35;;;0.75;;
25359;SDS011;13311;51.386;0.016;2022-07-06T16:21:14;0.68;;;0.60;;
25359;SDS011;13311;51.386;0.016;2022-07-06T16:26:15;0.73;;;0.73;;
25359;SDS011;13311;51.386;0.016;2022-07-06T16:31:16;1.10;;;0.45;;
25359;SDS011;13311;51.386;0.016;2022-07-06T16:36:17;0.50;;;0.40;;
25359;SDS011;13311;51.386;0.016;2022-07-06T16:41:18;2.35;;;0.50;;
25359;SDS011;13311;51.386;0.016;2022-07-06T16:46:19;0.57;;;0.50;;
25359;SDS011;13311;51.386;0.016;2022-07-06T16:51:19;0.93;;;0.47;;
25359;SDS011;13311;51.386;0.016;2022-07-06T16:56:20;0.88;;;0.40;;
25359;SDS011;13311;51.386;0.016;2022-07-06T17:01:21;0.70;;;0.50;;
25359;SDS011;13311;51.386;0.016;2022-07-06T17:06:25;3.55;;;0.57;;
25359;SDS011;13311;51.386;0.016;2022-07-06T17:11:27;0.43;;;0.40;;
25359;SDS011;13311;51.386;0.016;2022-07-06T17:16:28;2.92;;;0.75;;
25359;SDS011;13311;51.386;0.016;2022-07-06T17:21:29;0.47;;;0.40;;
25359;SDS011;13311;51.386;0.016;2022-07-06T17:26:30;0.50;;;0.40;;
25359;SDS011;13311;51.386;0.016;2022-07-06T17:31:30;0.55;;;0.38;;
25359;SDS011;13311;51.386;0.016;2022-07-06T17:36:31;0.47;;;0.47;;
25359;SDS011;13311;51.386;0.016;2022-07-06T17:41:33;1.30;;;0.50;;
25359;SDS011;13311;51.386;0.016;2022-07-06T17:46:33;1.48;;;0.32;;
25359;SDS011;13311;51.386;0.016;2022-07-06T17:51:35;0.68;;;0.47;;
25359;SDS011;13311;51.386;0.016;2022-07-06T17:56:36;0.55;;;0.40;;
25359;SDS011;13311;51.386;0.016;2022-07-06T18:01:36;2.25;;;0.60;;
25359;SDS011;13311;51.386;0.016;2022-07-06T18:06:37;1.42;;;0.82;;
25359;SDS011;13311;51.386;0.016;2022-07-06T18:11:38;0.60;;;0.45;;
25359;SDS011;13311;51.386;0.016;2022-07-06T18:16:39;0.85;;;0.40;;
25359;SDS011;13311;51.386;0.016;2022-07-06T18:21:40;0.50;;;0.50;;
25359;SDS011;13311;51.386;0.016;2022-07-06T18:26:44;0.90;;;0.57;;
25359;SDS011;13311;51.386;0.016;2022-07-06T18:31:45;3.28;;;0.45;;
25359;SDS011;13311;51.386;0.016;2022-07-06T18:36:46;0.40;;;0.30;;
25359;SDS011;13311;51.386;0.016;2022-07-06T18:41:47;0.38;;;0.30;;
25359;SDS011;13311;51.386;0.016;2022-07-06T18:46:48;1.40;;;0.70;;
25359;SDS011;13311;51.386;0.016;2022-07-06T18:51:49;3.05;;;0.30;;
25359;SDS011;13311;51.386;0.016;2022-07-06T18:56:50;0.85;;;0.50;;
25359;SDS011;13311;51.386;0.016;2022-07-06T19:01:50;0.88;;;0.73;;
25359;SDS011;13311;51.386;0.016;2022-07-06T19:06:51;0.75;;;0.55;;
25359;SDS011;13311;51.386;0.016;2022-07-06T19:11:54;4.40;;;0.82;;
25359;SDS011;13311;51.386;0.016;2022-07-06T19:16:55;0.32;;;0.30;;
25359;SDS011;13311;51.386;0.016;2022-07-06T19:21:56;0.30;;;0.30;;
25359;SDS011;13311;51.386;0.016;2022-07-06T19:26:57;3.70;;;0.70;;
25359;SDS011;13311;51.386;0.016;2022-07-06T19:31:57;1.23;;;0.60;;
25359;SDS011;13311;51.386;0.016;2022-07-06T19:37:01;0.55;;;0.50;;
25359;SDS011;13311;51.386;0.016;2022-07-06T19:42:02;1.92;;;0.80;;
25359;SDS011;13311;51.386;0.016;2022-07-06T19:47:03;2.95;;;0.45;;
25359;SDS011;13311;51.386;0.016;2022-07-06T19:52:04;0.85;;;0.60;;
25359;SDS011;13311;51.386;0.016;2022-07-06T19:57:05;3.72;;;0.40;;
25359;SDS011;13311;51.386;0.016;2022-07-06T20:02:06;0.98;;;0.70;;
25359;SDS011;13311;51.386;0.016;2022-07-06T20:07:07;1.58;;;0.50;;
25359;SDS011;13311;51.386;0.016;2022-07-06T20:12:08;3.13;;;0.70;;
25359;SDS011;13311;51.386;0.016;2022-07-06T20:17:09;1.25;;;0.60;;
25359;SDS011;13311;51.386;0.016;2022-07-06T20:22:10;2.03;;;1.02;;
25359;SDS011;13311;51.386;0.016;2022-07-06T20:27:11;0.82;;;0.60;;
25359;SDS011;13311;51.386;0.016;2022-07-06T20:32:12;0.70;;;0.52;;
25359;SDS011;13311;51.386;0.016;2022-07-06T20:37:13;1.33;;;0.60;;
25359;SDS011;13311;51.386;0.016;2022-07-06T20:42:13;3.90;;;0.85;;
25359;SDS011;13311;51.386;0.016;2022-07-06T20:47:14;1.75;;;1.08;;
25359;SDS011;13311;51.386;0.016;2022-07-06T20:52:16;1.48;;;0.80;;
25359;SDS011;13311;51.386;0.016;2022-07-06T20:57:16;2.13;;;1.58;;
25359;SDS011;13311;51.386;0.016;2022-07-06T21:02:17;5.00;;;2.30;;
25359;SDS011;13311;51.386;0.016;2022-07-06T21:07:18;1.13;;;1.02;;
25359;SDS011;13311;51.386;0.016;2022-07-06T21:12:19;1.85;;;1.05;;
25359;SDS011;13311;51.386;0.016;2022-07-06T21:17:21;2.65;;;0.77;;
25359;SDS011;13311;51.386;0.016;2022-07-06T21:22:22;1.35;;;0.98;;
25359;SDS011;13311;51.386;0.016;2022-07-06T21:27:22;1.48;;;0.60;;
25359;SDS011;13311;51.386;0.016;2022-07-06T21:32:23;0.75;;;0.50;;
25359;SDS011;13311;51.386;0.016;2022-07-06T21:37:24;2.20;;;0.57;;
25359;SDS011;13311;51.386;0.016;2022-07-06T21:42:26;0.98;;;0.55;;
25359;SDS011;13311;51.386;0.016;2022-07-06T21:47:27;1.88;;;0.65;;
25359;SDS011;13311;51.386;0.016;2022-07-06T21:52:28;0.50;;;0.40;;
25359;SDS011;13311;51.386;0.016;2022-07-06T21:57:29;0.30;;;0.30;;
25359;SDS011;13311;51.386;0.016;2022-07-06T22:02:29;1.80;;;0.30;;
25359;SDS011;13311;51.386;0.016;2022-07-06T22:07:30;0.50;;;0.43;;
25359;SDS011;13311;51.386;0.016;2022-07-06T22:12:31;2.22;;;0.88;;
25359;SDS011;13311;51.386;0.016;2022-07-06T22:17:32;0.90;;;0.60;;
25359;SDS011;13311;51.386;0.016;2022-07-06T22:22:32;1.25;;;0.47;;
25359;SDS011;13311;51.386;0.016;2022-07-06T22:27:33;2.13;;;0.50;;
25359;SDS011;13311;51.386;0.016;2022-07-06T22:32:34;1.25;;;0.65;;
25359;SDS011;13311;51.386;0.016;2022-07-06T22:37:35;1.40;;;0.80;;
25359;SDS011;13311;51.386;0.016;2022-07-06T22:42:35;1.58;;;0.63;;
25359;SDS011;13311;51.386;0.016;2022-07-06T22:47:36;1.02;;;0.60;;
25359;SDS011;13311;51.386;0.016;2022-07-06T22:52:37;1.55;;;0.50;;
25359;SDS011;13311;51.386;0.016;2022-07-06T22:57:38;1.83;;;0.65;;
25359;SDS011;13311;51.386;0.016;2022-07-06T23:02:38;1.13;;;0.70;;
25359;SDS011;13311;51.386;0.016;2022-07-06T23:07:39;0.50;;;0.45;;
25359;SDS011;13311;51.386;0.016;2022-07-06T23:12:40;1.30;;;0.52;;
25359;SDS011;13311;51.386;0.016;2022-07-06T23:17:41;0.85;;;0.85;;
25359;SDS011;13311;51.386;0.016;2022-07-06T23:22:42;1.80;;;0.60;;
25359;SDS011;13311;51.386;0.016;2022-07-06T23:27:42;0.77;;;0.52;;
25359;SDS011;13311;51.386;0.016;2022-07-06T23:32:43;1.20;;;0.70;;
25359;SDS011;13311;51.386;0.016;2022-07-06T23:37:45;2.03;;;0.70;;
25359;SDS011;13311;51.386;0.016;2022-07-06T23:42:46;2.30;;;0.60;;
25359;SDS011;13311;51.386;0.016;2022-07-06T23:47:48;3.92;;;0.77;;
25359;SDS011;13311;51.386;0.016;2022-07-06T23:52:48;1.33;;;0.80;;
25359;SDS011;13311;51.386;0.016;2022-07-06T23:57:49;1.77;;;0.50;;
